Time;durP1;ratioP1;P1;durP2;ratioP2;P2;SDS_P1;SDS_P2;PMS_P1;PMS_P2;Temp;Humidity;BMP_temperature;BMP_pressure;BME280_temperature;BME280_humidity;BME280_pressure;Samples;Min_cycle;Max_cycle;Signal;HPM_P1;HPM_P2
2022/12/24 00:01:14;;;;;;;84.10;28.65;;;5.10;99.90;;;;;;5037701;28;20041;-65
2022/12/24 00:03:39;;;;;;;91.60;29.95;;;4.90;99.90;;;;;;5038970;28;20095;-65
2022/12/24 00:06:15;;;;;;;83.97;29.63;;;6.20;99.90;;;;;;5037438;28;20041;-66
2022/12/24 00:08:41;;;;;;;76.25;29.08;;;6.70;99.90;;;;;;5037524;28;20047;-68
2022/12/24 00:11:07;;;;;;;69.32;27.42;;;5.20;99.90;;;;;;5038313;28;20399;-66
2022/12/24 00:13:33;;;;;;;78.75;29.13;;;5.90;99.90;;;;;;5016565;28;20045;-66
2022/12/24 00:15:59;;;;;;;76.50;26.80;;;6.20;99.90;;;;;;5038470;28;20891;-66
2022/12/24 00:18:26;;;;;;;59.10;26.42;;;6.10;99.90;;;;;;5037817;28;20119;-65
2022/12/24 00:20:52;;;;;;;59.58;26.13;;;6.00;99.90;;;;;;5019401;28;20186;-66
2022/12/24 00:23:18;;;;;;;63.28;26.83;;;6.30;99.90;;;;;;5038779;28;20050;-66
2022/12/24 00:25:44;;;;;;;59.10;26.77;;;4.70;99.90;;;;;;5037259;28;20044;-67
2022/12/24 00:28:10;;;;;;;63.17;25.52;;;5.40;99.90;;;;;;5037614;28;20040;-65
2022/12/24 00:30:40;;;;;;;59.80;25.92;;;5.60;99.90;;;;;;5035730;28;20086;-66
2022/12/24 00:33:06;;;;;;;57.97;26.23;;;6.70;99.90;;;;;;5020407;28;20399;-66
2022/12/24 00:35:33;;;;;;;53.30;22.50;;;6.70;99.90;;;;;;5035474;28;20183;-65
2022/12/24 00:37:59;;;;;;;50.70;24.15;;;4.50;99.90;;;;;;5035695;28;20036;-66
2022/12/24 00:40:25;;;;;;;57.25;25.63;;;6.70;99.90;;;;;;5036169;28;20048;-66
2022/12/24 00:42:51;;;;;;;63.13;26.70;;;6.00;99.90;;;;;;5019516;28;20339;-67
2022/12/24 00:45:17;;;;;;;64.07;27.33;;;6.80;99.90;;;;;;5017122;28;20235;-66
2022/12/24 00:47:42;;;;;;;83.85;30.60;;;6.20;99.90;;;;;;5036971;28;20041;-66
2022/12/24 00:50:08;;;;;;;81.85;30.15;;;5.10;99.90;;;;;;5068718;28;20052;-65
2022/12/24 00:52:34;;;;;;;90.82;31.00;;;5.10;99.90;;;;;;5034354;28;20047;-66
2022/12/24 00:55:00;;;;;;;69.30;29.25;;;4.60;99.90;;;;;;5037395;28;20550;-67
2022/12/24 00:57:25;;;;;;;70.57;25.52;;;6.60;99.90;;;;;;5035638;28;20033;-65
2022/12/24 00:59:51;;;;;;;76.97;27.10;;;6.20;99.90;;;;;;5036842;28;20041;-66
2022/12/24 01:02:17;;;;;;;69.10;27.33;;;4.70;99.90;;;;;;5033988;28;20541;-66
2022/12/24 01:07:27;;;;;;;61.17;23.63;;;4.70;99.90;;;;;;5037466;28;20049;-65
2022/12/24 01:09:53;;;;;;;71.80;26.75;;;4.70;99.90;;;;;;5038371;28;20036;-68
2022/12/24 01:12:18;;;;;;;43.20;20.33;;;5.50;99.90;;;;;;5037926;28;20045;-67
2022/12/24 01:14:44;;;;;;;46.92;21.45;;;7.00;99.90;;;;;;5020051;28;20041;-66
2022/12/24 01:17:10;;;;;;;42.08;20.15;;;6.40;99.90;;;;;;5034820;28;20147;-66
2022/12/24 01:19:36;;;;;;;42.92;20.75;;;5.80;99.90;;;;;;5038174;28;20041;-66
2022/12/24 01:22:02;;;;;;;41.92;19.48;;;4.90;99.90;;;;;;5035677;28;20503;-67
2022/12/24 01:24:27;;;;;;;32.35;16.33;;;5.20;99.90;;;;;;5035662;28;20067;-66
2022/12/24 01:26:53;;;;;;;48.05;21.33;;;5.70;99.90;;;;;;5037438;28;20056;-67
2022/12/24 01:29:19;;;;;;;38.83;19.00;;;6.60;99.90;;;;;;5035542;28;20495;-66
2022/12/24 01:31:44;;;;;;;34.67;16.13;;;6.80;99.90;;;;;;5034589;28;20537;-67
2022/12/24 01:34:10;;;;;;;34.03;16.10;;;4.80;99.90;;;;;;5017640;28;20079;-68
2022/12/24 01:36:36;;;;;;;50.72;21.45;;;5.40;99.90;;;;;;5003302;28;20080;-66
2022/12/24 01:39:02;;;;;;;39.70;17.90;;;6.20;99.90;;;;;;5036184;28;20041;-66
2022/12/24 01:44:25;;;;;;;54.10;21.17;;;5.40;99.90;;;;;;5037929;28;20077;-67
2022/12/24 01:46:57;;;;;;;53.60;20.08;;;5.60;99.90;;;;;;5050688;28;20035;-67
2022/12/24 01:49:23;;;;;;;46.28;18.27;;;7.10;99.90;;;;;;5033029;28;20047;-65
2022/12/24 01:51:54;;;;;;;52.90;21.52;;;7.10;99.90;;;;;;5037143;28;20041;-66
2022/12/24 01:54:20;;;;;;;56.80;23.83;;;5.90;99.90;;;;;;5033962;28;20124;-66
2022/12/24 01:56:51;;;;;;;61.38;23.77;;;6.30;99.90;;;;;;5018564;28;20579;-65
2022/12/24 01:59:18;;;;;;;66.40;23.77;;;6.40;99.90;;;;;;5036386;28;20056;-67
2022/12/24 02:01:47;;;;;;;69.40;25.48;;;6.90;99.90;;;;;;5048771;28;20115;-66
2022/12/24 02:04:27;;;;;;;80.32;27.38;;;7.20;99.90;;;;;;5065305;28;20145;-66
2022/12/24 02:06:53;;;;;;;78.18;28.02;;;7.00;99.90;;;;;;5051781;28;20040;-65
2022/12/24 02:09:19;;;;;;;85.35;27.00;;;7.00;99.90;;;;;;5035429;28;20047;-66
2022/12/24 02:11:45;;;;;;;96.15;28.63;;;6.00;99.90;;;;;;5018827;28;20648;-66
2022/12/24 02:14:13;;;;;;;102.97;30.02;;;6.00;99.90;;;;;;5037086;28;20087;-67
2022/12/24 02:16:57;;;;;;;118.03;28.77;;;6.30;99.90;;;;;;5034468;28;20499;-66
2022/12/24 02:19:34;;;;;;;;;;;4.80;99.90;;;;;;5064176;28;20041;-65
2022/12/24 02:22:18;;;;;;;72.88;24.08;;;6.70;99.90;;;;;;5049267;28;19935;-66
2022/12/24 02:25:19;;;;;;;103.20;28.92;;;6.40;99.90;;;;;;5065159;28;20068;-66
2022/12/24 02:27:54;;;;;;;73.10;22.17;;;7.00;99.90;;;;;;5035785;28;20525;-66
2022/12/24 02:30:24;;;;;;;90.20;27.83;;;6.50;99.90;;;;;;5046247;28;20049;-67
2022/12/24 02:33:03;;;;;;;104.35;30.88;;;4.70;99.90;;;;;;5033713;28;20056;-67
2022/12/24 02:35:54;;;;;;;136.88;34.17;;;5.40;99.90;;;;;;5035005;28;20052;-66
2022/12/24 02:38:52;;;;;;;114.47;33.00;;;5.60;99.90;;;;;;5006775;28;20045;-66
2022/12/24 02:44:24;;;;;;;118.60;32.47;;;5.50;99.90;;;;;;5034926;28;20049;-66
2022/12/24 02:46:50;;;;;;;91.05;29.63;;;7.00;99.90;;;;;;5018167;28;20049;-65
2022/12/24 02:49:16;;;;;;;79.85;28.92;;;5.00;99.90;;;;;;5035168;28;20068;-66
2022/12/24 02:51:41;;;;;;;88.07;29.25;;;5.50;99.90;;;;;;5032600;28;20569;-67
2022/12/24 02:54:07;;;;;;;89.43;30.27;;;6.20;99.90;;;;;;5019077;28;21338;-66
2022/12/24 02:57:09;;;;;;;90.35;31.33;;;5.40;99.90;;;;;;5065751;28;20049;-67
2022/12/24 02:59:54;;;;;;;130.70;35.42;;;6.70;99.90;;;;;;5018065;28;20073;-67
2022/12/24 03:03:06;;;;;;;119.15;34.35;;;5.10;99.90;;;;;;5040424;28;20446;-66
2022/12/24 03:05:56;;;;;;;122.03;34.83;;;5.30;99.90;;;;;;5039037;28;20043;-66
2022/12/24 03:08:46;;;;;;;109.63;32.60;;;5.20;99.90;;;;;;5036691;28;20045;-65
2022/12/24 03:11:14;;;;;;;168.20;36.90;;;4.70;99.90;;;;;;5068860;28;20047;-65
2022/12/24 03:13:42;;;;;;;128.40;36.00;;;6.90;99.90;;;;;;5038374;28;20536;-66
2022/12/24 03:16:12;;;;;;;148.77;35.55;;;4.90;99.90;;;;;;5038896;28;20043;-67
2022/12/24 03:18:41;;;;;;;166.43;38.83;;;6.50;99.90;;;;;;5038311;28;20049;-65
2022/12/24 03:21:31;;;;;;;194.75;39.63;;;6.80;99.90;;;;;;5039743;28;20135;-66
2022/12/24 03:23:57;;;;;;;155.20;36.50;;;6.60;99.90;;;;;;5068990;28;20433;-66
2022/12/24 03:26:25;;;;;;;172.95;38.90;;;4.80;99.90;;;;;;5038570;28;20098;-66
2022/12/24 03:28:51;;;;;;;251.15;42.13;;;6.40;99.90;;;;;;5053063;28;20047;-66
2022/12/24 03:31:17;;;;;;;143.95;38.33;;;4.90;99.90;;;;;;5039003;28;20239;-66
2022/12/24 03:33:44;;;;;;;149.25;36.97;;;6.20;99.90;;;;;;5039569;28;20040;-66
2022/12/24 03:36:10;;;;;;;150.20;38.95;;;4.90;99.90;;;;;;5038707;28;20032;-67
2022/12/24 03:38:36;;;;;;;160.25;37.88;;;6.40;99.90;;;;;;5021342;28;20040;-65
2022/12/24 03:41:02;;;;;;;207.10;42.25;;;4.90;99.90;;;;;;5036427;28;20767;-65
2022/12/24 03:43:28;;;;;;;151.65;38.45;;;5.10;99.90;;;;;;5036231;28;20051;-67
2022/12/24 03:45:54;;;;;;;200.95;39.55;;;4.90;99.90;;;;;;5054462;28;20175;-66
2022/12/24 03:48:19;;;;;;;144.35;36.03;;;6.80;99.90;;;;;;5037852;28;20103;-67
2022/12/24 03:50:46;;;;;;;152.00;37.58;;;5.80;99.90;;;;;;5038311;28;20037;-66
2022/12/24 03:53:11;;;;;;;184.60;41.53;;;6.40;99.90;;;;;;5038016;28;20124;-67
2022/12/24 03:55:38;;;;;;;167.40;39.13;;;6.70;99.90;;;;;;5000707;28;20053;-65
2022/12/24 03:58:04;;;;;;;195.60;40.13;;;7.00;99.90;;;;;;5035761;28;20098;-66
2022/12/24 04:00:29;;;;;;;140.70;37.15;;;5.20;99.90;;;;;;5068506;28;20045;-65
2022/12/24 04:02:55;;;;;;;148.23;36.33;;;6.70;99.90;;;;;;5021108;28;20040;-66
2022/12/24 04:05:21;;;;;;;148.60;37.42;;;5.20;99.90;;;;;;5035301;28;20045;-66
2022/12/24 04:07:47;;;;;;;163.35;40.55;;;5.70;99.90;;;;;;5067876;28;20911;-67
2022/12/24 04:10:14;;;;;;;151.88;38.28;;;6.70;99.90;;;;;;5036206;28;20051;-66
2022/12/24 04:12:40;;;;;;;157.15;40.30;;;5.20;99.90;;;;;;5017517;28;20049;-66
2022/12/24 04:15:07;;;;;;;153.85;39.95;;;7.20;99.90;;;;;;5037905;28;20059;-66
2022/12/24 04:17:33;;;;;;;153.27;39.80;;;7.00;99.90;;;;;;4987558;28;20080;-66
2022/12/24 04:19:59;;;;;;;154.18;39.33;;;7.20;99.90;;;;;;5019633;28;20172;-66
2022/12/24 04:22:24;;;;;;;159.75;38.83;;;6.10;99.90;;;;;;5037266;28;20117;-66
2022/12/24 04:24:50;;;;;;;193.15;39.63;;;6.70;99.90;;;;;;5036898;28;20047;-67
2022/12/24 04:27:16;;;;;;;196.80;41.72;;;7.30;99.90;;;;;;5015554;28;20047;-67
2022/12/24 04:29:42;;;;;;;153.45;41.20;;;5.50;99.90;;;;;;5034053;28;20502;-67
2022/12/24 04:32:09;;;;;;;158.05;40.85;;;7.30;99.90;;;;;;5036472;28;20044;-66
2022/12/24 04:34:35;;;;;;;171.43;41.92;;;6.70;99.90;;;;;;5035972;28;20102;-67
2022/12/24 04:37:01;;;;;;;137.68;39.80;;;6.60;99.90;;;;;;5034101;28;20044;-65
2022/12/24 04:39:27;;;;;;;105.43;38.42;;;7.30;99.90;;;;;;5036502;28;20048;-66
2022/12/24 04:41:53;;;;;;;110.00;39.95;;;6.10;99.90;;;;;;5035264;28;20479;-67
2022/12/24 04:44:18;;;;;;;118.93;41.08;;;6.00;99.90;;;;;;5047773;28;20033;-67
2022/12/24 04:46:44;;;;;;;109.43;42.33;;;6.00;99.90;;;;;;5037528;28;20424;-67
2022/12/24 04:49:10;;;;;;;112.43;42.30;;;6.80;99.90;;;;;;5019410;28;20044;-67
2022/12/24 04:51:36;;;;;;;102.80;40.20;;;6.00;99.90;;;;;;5036209;28;20267;-67
2022/12/24 04:54:02;;;;;;;104.68;41.22;;;6.20;99.90;;;;;;5002437;28;20045;-66
2022/12/24 04:56:30;;;;;;;114.55;44.72;;;5.70;99.90;;;;;;5050228;28;20327;-67
2022/12/24 04:58:57;;;;;;;109.55;40.85;;;6.80;99.90;;;;;;5012226;28;20102;-67
2022/12/24 05:01:27;;;;;;;105.72;41.33;;;5.90;99.90;;;;;;5017045;28;20526;-67
2022/12/24 05:03:53;;;;;;;99.72;40.33;;;7.20;99.90;;;;;;5036698;28;20063;-69
2022/12/24 05:06:24;;;;;;;113.47;43.10;;;6.70;99.90;;;;;;5018341;28;20071;-68
2022/12/24 05:08:53;;;;;;;122.40;44.05;;;6.00;99.90;;;;;;5033536;28;20055;-69
2022/12/24 05:11:19;;;;;;;112.72;42.63;;;7.30;99.90;;;;;;5035580;28;20405;-68
2022/12/24 05:13:46;;;;;;;106.07;40.42;;;7.70;99.90;;;;;;5036030;28;20051;-69
2022/12/24 05:16:12;;;;;;;87.82;37.13;;;7.40;99.90;;;;;;5032281;28;20479;-69
2022/12/24 05:18:39;;;;;;;99.03;38.08;;;6.80;99.90;;;;;;5018305;28;20394;-69
2022/12/24 05:21:17;;;;;;;81.32;36.17;;;6.90;99.90;;;;;;5018193;28;20302;-68
2022/12/24 05:26:30;;;;;;;83.07;34.20;;;6.20;99.90;;;;;;5034466;28;20053;-68
2022/12/24 05:28:58;;;;;;;92.32;34.05;;;8.20;99.90;;;;;;5018245;28;20047;-70
2022/12/24 05:31:26;;;;;;;74.68;30.65;;;8.30;99.90;;;;;;5032582;28;20129;-69
2022/12/24 05:33:53;;;;;;;62.00;27.77;;;6.70;99.90;;;;;;5035232;28;20041;-69
2022/12/24 05:36:19;;;;;;;64.78;24.33;;;7.80;99.90;;;;;;5034260;28;20037;-68
2022/12/24 05:38:45;;;;;;;70.07;27.20;;;7.50;99.90;;;;;;5034575;28;20102;-69
2022/12/24 05:41:11;;;;;;;63.58;25.38;;;6.60;99.90;;;;;;5017061;28;20502;-68
2022/12/24 05:43:37;;;;;;;67.40;25.23;;;6.70;99.90;;;;;;5034923;28;20126;-69
2022/12/24 05:46:13;;;;;;;67.57;24.30;;;8.10;99.90;;;;;;5060854;28;20407;-70
2022/12/24 05:48:40;;;;;;;56.42;21.20;;;8.10;99.90;;;;;;5034971;28;20435;-69
2022/12/24 05:51:08;;;;;;;51.20;18.20;;;8.10;99.90;;;;;;5033814;28;20040;-69
2022/12/24 05:53:34;;;;;;;50.35;15.60;;;7.60;99.90;;;;;;5032992;28;20388;-70
2022/12/24 05:56:09;;;;;;;59.25;13.68;;;8.40;99.90;;;;;;5034505;28;20080;-69
2022/12/24 05:58:35;;;;;;;47.28;13.35;;;7.50;99.90;;;;;;5018143;28;20150;-69
2022/12/24 06:01:02;;;;;;;48.60;12.05;;;8.00;99.90;;;;;;5048960;28;20049;-69
2022/12/24 06:03:29;;;;;;;54.17;10.98;;;6.70;99.90;;;;;;5031163;28;20419;-69
2022/12/24 06:06:07;;;;;;;46.40;10.85;;;7.00;99.90;;;;;;5017834;28;20087;-69
2022/12/24 06:08:34;;;;;;;51.45;8.77;;;6.70;99.90;;;;;;5065648;28;20049;-69
2022/12/24 06:11:02;;;;;;;61.40;10.23;;;8.30;99.90;;;;;;5032114;28;20036;-69
2022/12/24 06:13:28;;;;;;;52.13;9.25;;;7.30;99.90;;;;;;5048208;28;20045;-69
2022/12/24 06:15:58;;;;;;;44.55;7.82;;;6.70;99.90;;;;;;5034316;28;20568;-69
2022/12/24 06:18:24;;;;;;;41.13;6.90;;;8.40;99.90;;;;;;5029050;28;20131;-69
2022/12/24 06:20:54;;;;;;;45.13;7.25;;;8.30;99.90;;;;;;5034129;28;20416;-69
2022/12/24 06:23:21;;;;;;;50.45;7.22;;;8.20;99.90;;;;;;5034461;28;20120;-67
2022/12/24 06:25:47;;;;;;;52.83;7.65;;;7.10;99.90;;;;;;5032525;28;20617;-67
2022/12/24 06:28:13;;;;;;;65.82;8.27;;;7.50;99.90;;;;;;5035923;28;20051;-68
2022/12/24 06:30:39;;;;;;;58.72;7.45;;;7.30;99.90;;;;;;5035841;28;20075;-66
2022/12/24 06:33:05;;;;;;;58.00;8.02;;;8.40;99.90;;;;;;5033316;28;20377;-66
2022/12/24 06:35:31;;;;;;;58.42;7.20;;;7.40;99.90;;;;;;5035950;28;20041;-66
2022/12/24 06:37:58;;;;;;;57.33;6.75;;;8.70;99.90;;;;;;5037613;28;20052;-66
2022/12/24 06:40:25;;;;;;;55.50;7.75;;;7.30;99.90;;;;;;5068279;28;20087;-66
2022/12/24 06:42:50;;;;;;;56.17;7.05;;;8.80;99.90;;;;;;5037790;28;20052;-67
2022/12/24 06:45:16;;;;;;;63.80;7.65;;;7.70;99.90;;;;;;5037904;28;20037;-67
2022/12/24 06:47:42;;;;;;;52.85;6.90;;;7.60;99.90;;;;;;5038306;28;20041;-67
2022/12/24 06:50:08;;;;;;;50.13;6.35;;;7.80;99.90;;;;;;5036250;28;20037;-67
2022/12/24 06:52:34;;;;;;;64.10;7.95;;;7.40;99.90;;;;;;5038460;28;20553;-67
2022/12/24 06:55:00;;;;;;;56.88;8.77;;;7.40;99.90;;;;;;5021013;28;20064;-66
2022/12/24 06:57:25;;;;;;;66.40;9.82;;;7.70;99.90;;;;;;5037216;28;20045;-67
2022/12/24 06:59:51;;;;;;;63.55;9.35;;;8.70;99.90;;;;;;5037930;28;20064;-67
2022/12/24 07:02:17;;;;;;;57.15;8.40;;;7.50;99.90;;;;;;5037562;28;20052;-67
2022/12/24 07:04:42;;;;;;;65.90;7.20;;;8.80;99.90;;;;;;5036944;28;20052;-67
2022/12/24 07:07:08;;;;;;;59.30;7.25;;;8.70;99.90;;;;;;5003393;28;20048;-67
2022/12/24 07:09:34;;;;;;;66.13;8.07;;;8.10;99.90;;;;;;5037580;28;20240;-67
2022/12/24 07:11:59;;;;;;;66.70;8.10;;;7.50;99.90;;;;;;5019349;28;20441;-67
2022/12/24 07:14:25;;;;;;;64.75;8.48;;;8.70;99.90;;;;;;5020272;28;20052;-66
2022/12/24 07:16:52;;;;;;;59.22;7.75;;;8.60;99.90;;;;;;5039532;28;20120;-68
2022/12/24 07:19:17;;;;;;;61.53;7.80;;;8.90;99.90;;;;;;5036727;28;20049;-66
2022/12/24 07:21:43;;;;;;;67.45;7.93;;;7.60;99.90;;;;;;5019050;28;20044;-66
2022/12/24 07:24:09;;;;;;;63.67;8.60;;;8.20;99.90;;;;;;5038738;28;20049;-67
2022/12/24 07:26:35;;;;;;;75.28;9.18;;;8.80;99.90;;;;;;5039174;28;20510;-66
2022/12/24 07:29:00;;;;;;;63.40;7.90;;;8.90;99.90;;;;;;5037071;28;20055;-67
2022/12/24 07:31:26;;;;;;;53.15;7.40;;;7.80;99.90;;;;;;5038130;28;20203;-68
2022/12/24 07:33:52;;;;;;;57.15;7.03;;;8.40;99.90;;;;;;5020621;28;20358;-68
2022/12/24 07:36:20;;;;;;;59.42;6.82;;;7.70;99.90;;;;;;5018487;28;20452;-68
2022/12/24 07:38:46;;;;;;;53.63;6.78;;;8.30;99.90;;;;;;5027932;28;20037;-69
2022/12/24 07:41:13;;;;;;;62.40;8.45;;;8.60;99.90;;;;;;5039203;28;20943;-68
2022/12/24 07:43:39;;;;;;;55.08;6.78;;;8.70;99.90;;;;;;5037654;28;20072;-68
2022/12/24 07:46:04;;;;;;;68.13;18.02;;;7.70;99.90;;;;;;5040866;28;20125;-70
2022/12/24 07:48:31;;;;;;;63.78;11.05;;;7.80;99.90;;;;;;5039433;28;20153;-69
2022/12/24 07:50:58;;;;;;;57.75;10.32;;;8.70;99.90;;;;;;5036699;28;20359;-70
2022/12/24 07:53:26;;;;;;;63.63;7.25;;;7.90;99.90;;;;;;5035051;28;20106;-70
2022/12/24 07:55:52;;;;;;;62.65;7.40;;;8.80;99.90;;;;;;5037229;28;20041;-70
2022/12/24 07:58:18;;;;;;;65.43;7.40;;;8.80;99.90;;;;;;5019512;28;20052;-67
2022/12/24 08:00:44;;;;;;;53.95;6.90;;;8.00;99.90;;;;;;5020978;28;20191;-68
2022/12/24 08:03:17;;;;;;;58.85;6.90;;;8.60;99.90;;;;;;5020003;28;20048;-68
2022/12/24 08:05:43;;;;;;;57.85;7.15;;;8.00;99.90;;;;;;5035295;28;20041;-69
2022/12/24 08:08:11;;;;;;;63.08;8.25;;;8.30;99.90;;;;;;5005069;28;20498;-68
2022/12/24 08:10:39;;;;;;;65.07;6.95;;;7.90;99.90;;;;;;5019220;28;20132;-68
2022/12/24 08:13:05;;;;;;;52.45;6.32;;;8.60;99.90;;;;;;5035028;28;20052;-69
2022/12/24 08:15:31;;;;;;;59.08;6.50;;;8.20;99.90;;;;;;5036048;28;20379;-67
2022/12/24 08:17:57;;;;;;;54.00;7.60;;;8.20;99.90;;;;;;5038086;28;21060;-68
2022/12/24 08:20:22;;;;;;;59.53;6.82;;;8.90;99.90;;;;;;5038177;28;20049;-69
2022/12/24 08:22:48;;;;;;;44.72;5.35;;;8.90;99.90;;;;;;5002874;28;20410;-69
2022/12/24 08:25:14;;;;;;;53.38;7.15;;;8.10;99.90;;;;;;5032774;28;20036;-68
2022/12/24 08:27:40;;;;;;;51.20;6.90;;;9.00;99.90;;;;;;5019301;28;20063;-67
2022/12/24 08:30:06;;;;;;;57.75;7.47;;;8.50;99.90;;;;;;5033513;28;20491;-67
2022/12/24 08:32:34;;;;;;;51.78;6.72;;;8.50;99.90;;;;;;5037141;28;20128;-69
2022/12/24 08:35:00;;;;;;;50.88;6.13;;;9.20;99.90;;;;;;5005810;28;20375;-68
2022/12/24 08:37:26;;;;;;;59.20;6.25;;;9.00;99.90;;;;;;5021103;28;20041;-68
2022/12/24 08:39:51;;;;;;;44.15;5.43;;;9.10;99.90;;;;;;5003650;28;20142;-67
2022/12/24 08:42:17;;;;;;;44.55;5.97;;;8.10;99.90;;;;;;5004134;28;20057;-69
2022/12/24 08:44:43;;;;;;;46.47;6.38;;;8.20;99.90;;;;;;5020124;28;20086;-68
2022/12/24 08:47:08;;;;;;;50.92;5.93;;;8.10;99.90;;;;;;5037951;28;20506;-68
2022/12/24 08:49:34;;;;;;;50.95;6.63;;;8.90;99.90;;;;;;5021246;28;20052;-67
2022/12/24 08:52:00;;;;;;;44.95;5.95;;;8.20;99.90;;;;;;5004142;28;20048;-67
2022/12/24 08:54:26;;;;;;;56.30;6.53;;;8.00;99.90;;;;;;5037286;28;20052;-69
2022/12/24 08:56:51;;;;;;;56.63;7.25;;;8.10;99.90;;;;;;5002597;28;20049;-68
2022/12/24 08:59:17;;;;;;;66.60;8.20;;;9.20;99.90;;;;;;5020102;28;20065;-68
2022/12/24 09:01:43;;;;;;;61.13;5.97;;;8.10;99.90;;;;;;5020277;28;20538;-68
2022/12/24 09:04:08;;;;;;;49.85;6.35;;;8.70;99.90;;;;;;5037682;28;20164;-68
2022/12/24 09:06:35;;;;;;;54.67;6.93;;;9.00;99.90;;;;;;5037422;28;20157;-68
2022/12/24 09:09:02;;;;;;;47.83;6.80;;;9.20;99.90;;;;;;5019792;28;20045;-67
2022/12/24 09:11:28;;;;;;;44.65;5.80;;;9.00;99.90;;;;;;5019462;28;20048;-68
2022/12/24 09:13:54;;;;;;;51.90;6.15;;;8.70;99.90;;;;;;5020352;28;20380;-68
2022/12/24 09:16:20;;;;;;;54.67;6.82;;;9.00;99.90;;;;;;5035659;28;20665;-68
2022/12/24 09:18:46;;;;;;;51.50;6.68;;;8.20;99.90;;;;;;5037592;28;20118;-68
2022/12/24 09:21:13;;;;;;;63.80;7.50;;;9.00;99.90;;;;;;5021482;28;20311;-68
2022/12/24 09:23:41;;;;;;;48.88;7.63;;;9.10;99.90;;;;;;5035891;28;20405;-67
2022/12/24 09:26:18;;;;;;;49.83;6.32;;;9.00;99.90;;;;;;5021609;28;20056;-67
2022/12/24 09:28:44;;;;;;;53.45;7.20;;;8.30;99.90;;;;;;5035137;28;20044;-68
2022/12/24 09:31:11;;;;;;;54.40;6.90;;;9.20;99.90;;;;;;5019658;28;20329;-67
2022/12/24 09:33:39;;;;;;;55.42;7.47;;;8.60;99.90;;;;;;5020861;28;20036;-67
2022/12/24 09:36:06;;;;;;;58.42;7.40;;;8.30;99.90;;;;;;5021116;28;20098;-67
2022/12/24 09:38:32;;;;;;;43.90;7.13;;;9.10;99.90;;;;;;5036152;28;20531;-67
2022/12/24 09:40:59;;;;;;;57.42;8.07;;;8.50;99.90;;;;;;5036917;28;20044;-68
2022/12/24 09:43:28;;;;;;;47.17;6.78;;;8.90;99.90;;;;;;5035203;28;20045;-68
2022/12/24 09:46:12;;;;;;;54.05;7.00;;;9.30;99.90;;;;;;5038115;28;20127;-68
2022/12/24 09:48:44;;;;;;;;;;;9.40;99.90;;;;;;5020161;28;20083;-68
2022/12/24 09:51:35;;;;;;;44.05;6.43;;;8.90;99.90;;;;;;5037371;28;20210;-68
2022/12/24 09:54:10;;;;;;;51.40;7.25;;;9.50;99.90;;;;;;5019447;28;20562;-68
2022/12/24 09:56:43;;;;;;;57.40;6.97;;;9.00;99.90;;;;;;5020356;28;20423;-69
2022/12/24 09:59:20;;;;;;;47.70;6.63;;;9.10;99.90;;;;;;5035165;28;20490;-67
2022/12/24 10:01:46;;;;;;;40.78;6.13;;;9.80;99.90;;;;;;5035740;28;20067;-68
2022/12/24 10:04:15;;;;;;;49.90;6.60;;;9.50;99.90;;;;;;5036358;28;20067;-69
2022/12/24 10:07:13;;;;;;;42.10;6.03;;;9.60;99.90;;;;;;5020471;28;20498;-68
2022/12/24 10:09:43;;;;;;;49.97;6.90;;;10.10;99.90;;;;;;5035778;28;20521;-68
2022/12/24 10:12:21;;;;;;;49.08;6.43;;;9.90;99.90;;;;;;5040133;28;20120;-69
2022/12/24 10:15:24;;;;;;;49.08;7.00;;;10.10;99.90;;;;;;5023452;28;20088;-68
2022/12/24 10:18:12;;;;;;;46.88;6.50;;;9.70;99.90;;;;;;5072804;28;20052;-69
2022/12/24 10:21:04;;;;;;;45.60;5.88;;;10.00;99.90;;;;;;5041107;28;20053;-68
2022/12/24 10:23:46;;;;;;;41.80;5.55;;;10.00;99.90;;;;;;5007505;28;20053;-68
2022/12/24 10:26:26;;;;;;;47.67;6.70;;;10.00;99.90;;;;;;5039678;28;20393;-68
2022/12/24 10:29:07;;;;;;;39.53;5.47;;;9.80;99.90;;;;;;5040928;28;20148;-68
2022/12/24 10:32:04;;;;;;;36.85;5.65;;;10.00;99.90;;;;;;5038199;28;20107;-68
2022/12/24 10:34:37;;;;;;;40.40;5.25;;;10.00;99.90;;;;;;5040175;28;20036;-67
2022/12/24 10:37:03;;;;;;;33.80;4.97;;;10.30;99.90;;;;;;5024232;28;20045;-68
2022/12/24 10:39:29;;;;;;;44.60;6.25;;;10.30;99.90;;;;;;5039700;28;20694;-68
2022/12/24 10:41:58;;;;;;;41.13;5.75;;;9.70;99.90;;;;;;5022560;28;20044;-69
2022/12/24 10:44:27;;;;;;;38.40;5.82;;;9.70;99.90;;;;;;5040524;28;20431;-68
2022/12/24 10:46:53;;;;;;;38.70;6.15;;;10.10;99.90;;;;;;5038254;28;20056;-68
2022/12/24 10:49:24;;;;;;;50.17;6.35;;;9.50;99.90;;;;;;5021564;28;20044;-67
2022/12/24 10:52:11;;;;;;;40.63;6.07;;;9.40;99.90;;;;;;5074335;28;20051;-67
2022/12/24 10:54:56;;;;;;;41.90;5.97;;;9.50;99.90;;;;;;5023698;28;20503;-69
2022/12/24 10:57:25;;;;;;;55.38;7.80;;;9.90;99.90;;;;;;5038481;28;20045;-70
2022/12/24 10:59:53;;;;;;;40.63;6.20;;;9.40;99.90;;;;;;5040127;28;20425;-68
2022/12/24 11:02:33;;;;;;;40.88;5.53;;;10.00;99.90;;;;;;5040648;28;20040;-68
2022/12/24 11:05:00;;;;;;;47.78;5.93;;;9.40;99.90;;;;;;5038078;28;20045;-68
2022/12/24 11:07:28;;;;;;;54.35;6.95;;;9.90;99.90;;;;;;5040889;28;20915;-67
2022/12/24 11:09:54;;;;;;;39.42;6.70;;;9.50;99.90;;;;;;5023359;28;20150;-68
2022/12/24 11:12:24;;;;;;;48.00;6.32;;;9.60;99.90;;;;;;5022348;28;20151;-67
2022/12/24 11:15:03;;;;;;;44.45;6.45;;;9.80;99.90;;;;;;5040037;28;20538;-68
2022/12/24 11:17:29;;;;;;;45.88;6.25;;;9.50;99.90;;;;;;5039928;28;20397;-68
2022/12/24 11:19:56;;;;;;;51.28;7.20;;;10.00;99.90;;;;;;5018863;28;20049;-68
2022/12/24 11:22:23;;;;;;;45.33;6.20;;;10.00;99.90;;;;;;5039722;28;20092;-68
2022/12/24 11:25:19;;;;;;;46.28;6.25;;;10.20;99.90;;;;;;5039996;28;20067;-68
2022/12/24 11:27:50;;;;;;;40.70;5.40;;;9.60;99.90;;;;;;5038368;28;20306;-68
2022/12/24 11:30:16;;;;;;;48.15;6.65;;;9.60;99.90;;;;;;5039854;28;20131;-68
2022/12/24 11:32:43;;;;;;;40.25;6.07;;;9.90;99.90;;;;;;5023845;28;20515;-68
2022/12/24 11:35:23;;;;;;;50.08;6.90;;;9.60;99.90;;;;;;5035150;28;20045;-69
2022/12/24 11:38:11;;;;;;;49.95;7.07;;;9.90;99.90;;;;;;5039662;28;20565;-67
2022/12/24 11:40:45;;;;;;;50.40;7.30;;;10.20;99.90;;;;;;5022916;28;20045;-67
2022/12/24 11:43:15;;;;;;;41.10;6.20;;;9.70;99.90;;;;;;5039663;28;20040;-68
2022/12/24 11:45:54;;;;;;;50.45;6.30;;;10.20;99.90;;;;;;5039038;28;20120;-68
2022/12/24 11:48:30;;;;;;;43.47;6.47;;;10.20;99.90;;;;;;5041152;28;20064;-68
2022/12/24 11:51:17;;;;;;;46.25;6.80;;;9.60;99.90;;;;;;5035791;28;20471;-68
2022/12/24 11:53:57;;;;;;;37.40;5.20;;;10.00;99.90;;;;;;5038947;28;20052;-68
2022/12/24 11:56:32;;;;;;;47.25;6.57;;;9.80;99.90;;;;;;5038849;28;20550;-67
2022/12/24 11:59:23;;;;;;;41.03;6.07;;;10.00;99.90;;;;;;5037116;28;20045;-68
2022/12/24 12:01:59;;;;;;;46.95;6.80;;;9.70;99.90;;;;;;5038831;28;20305;-68
2022/12/24 12:04:29;;;;;;;48.95;6.65;;;10.10;99.90;;;;;;5039380;28;20311;-68
2022/12/24 12:07:12;;;;;;;39.35;6.05;;;10.10;99.90;;;;;;5033186;28;20883;-69
2022/12/24 12:09:43;;;;;;;41.60;5.72;;;10.00;99.90;;;;;;5036843;28;20158;-68
2022/12/24 12:12:21;;;;;;;36.65;5.38;;;10.20;99.90;;;;;;5036454;28;20049;-68
2022/12/24 12:14:52;;;;;;;37.45;5.38;;;10.10;99.90;;;;;;5036034;28;20033;-67
2022/12/24 12:17:46;;;;;;;34.40;5.32;;;9.70;99.90;;;;;;5037522;28;20091;-67
2022/12/24 12:20:12;;;;;;;;;;;10.20;99.90;;;;;;5066989;28;20049;-68
2022/12/24 12:22:59;;;;;;;34.20;4.18;;;10.20;99.90;;;;;;5031285;28;19924;-67
2022/12/24 12:25:45;;;;;;;31.90;4.10;;;9.90;99.90;;;;;;5034960;28;20296;-67
2022/12/24 12:28:22;;;;;;;29.88;4.72;;;10.20;99.90;;;;;;5036572;28;20037;-68
2022/12/24 12:31:21;;;;;;;27.23;3.95;;;10.10;99.90;;;;;;5035104;28;20076;-68
2022/12/24 12:34:10;;;;;;;29.23;3.78;;;10.00;99.90;;;;;;5035081;28;20049;-68
2022/12/24 12:36:44;;;;;;;26.67;3.53;;;10.30;99.90;;;;;;5034686;28;20589;-69
2022/12/24 12:39:10;;;;;;;25.40;3.47;;;10.10;99.90;;;;;;5032681;28;20055;-68
2022/12/24 12:42:18;;;;;;;25.88;4.22;;;10.20;99.90;;;;;;5034706;28;20094;-67
2022/12/24 12:45:00;;;;;;;30.00;3.33;;;10.30;99.90;;;;;;5032197;28;20049;-66
2022/12/24 12:47:39;;;;;;;21.77;3.10;;;9.90;99.90;;;;;;5033959;28;20679;-68
2022/12/24 12:50:26;;;;;;;25.90;3.35;;;9.90;99.90;;;;;;5018016;28;20071;-68
2022/12/24 12:53:23;;;;;;;32.20;3.45;;;10.10;99.90;;;;;;5034265;28;20601;-67
2022/12/24 12:56:26;;;;;;;24.60;3.92;;;10.00;99.90;;;;;;5067002;28;20033;-68
2022/12/24 12:59:11;;;;;;;20.20;3.08;;;9.80;99.90;;;;;;5037291;28;20054;-68
2022/12/24 13:01:56;;;;;;;22.88;3.22;;;10.00;99.90;;;;;;5035824;28;20369;-68
2022/12/24 13:04:28;;;;;;;19.67;2.67;;;10.00;99.90;;;;;;5053160;28;20564;-67
2022/12/24 13:07:09;;;;;;;26.20;3.30;;;9.90;99.90;;;;;;5035493;28;20056;-67
2022/12/24 13:09:37;;;;;;;24.75;2.58;;;9.80;99.90;;;;;;5032568;28;20052;-67